sensor_id;sensor_type;location;lat;lon;timestamp;P1;durP1;ratioP1;P2;durP2;ratioP2
46755;SDS011;32506;52.826;-1.192;2023-03-11T00:00:40;4.85;;;2.85;;
46755;SDS011;32506;52.826;-1.192;2023-03-11T00:03:08;6.22;;;2.63;;
46755;SDS011;32506;52.826;-1.192;2023-03-11T00:05:37;4.38;;;2.80;;
46755;SDS011;32506;52.826;-1.192;2023-03-11T00:08:05;4.82;;;2.58;;
46755;SDS011;32506;52.826;-1.192;2023-03-11T00:10:36;5.45;;;2.85;;
46755;SDS011;32506;52.826;-1.192;2023-03-11T00:13:04;7.75;;;3.20;;
46755;SDS011;32506;52.826;-1.192;2023-03-11T00:15:31;5.72;;;2.97;;
46755;SDS011;32506;52.826;-1.192;2023-03-11T00:17:58;8.55;;;3.20;;
46755;SDS011;32506;52.826;-1.192;2023-03-11T00:20:25;6.43;;;3.08;;
46755;SDS011;32506;52.826;-1.192;2023-03-11T00:22:55;7.47;;;2.75;;
46755;SDS011;32506;52.826;-1.192;2023-03-11T00:25:23;6.00;;;3.13;;
46755;SDS011;32506;52.826;-1.192;2023-03-11T00:27:50;6.70;;;3.08;;
46755;SDS011;32506;52.826;-1.192;2023-03-11T00:30:16;9.32;;;3.40;;
46755;SDS011;32506;52.826;-1.192;2023-03-11T00:32:42;8.90;;;3.55;;
46755;SDS011;32506;52.826;-1.192;2023-03-11T00:35:12;7.82;;;4.22;;
46755;SDS011;32506;52.826;-1.192;2023-03-11T00:37:39;7.45;;;3.50;;
46755;SDS011;32506;52.826;-1.192;2023-03-11T00:40:05;8.13;;;4.38;;
46755;SDS011;32506;52.826;-1.192;2023-03-11T00:42:33;9.98;;;4.20;;
46755;SDS011;32506;52.826;-1.192;2023-03-11T00:44:58;9.00;;;4.55;;
46755;SDS011;32506;52.826;-1.192;2023-03-11T00:47:24;10.32;;;5.20;;
46755;SDS011;32506;52.826;-1.192;2023-03-11T00:49:49;10.65;;;5.25;;
46755;SDS011;32506;52.826;-1.192;2023-03-11T00:52:15;9.00;;;4.45;;
46755;SDS011;32506;52.826;-1.192;2023-03-11T00:54:40;11.27;;;5.68;;
46755;SDS011;32506;52.826;-1.192;2023-03-11T00:57:05;11.75;;;5.22;;
46755;SDS011;32506;52.826;-1.192;2023-03-11T00:59:34;11.00;;;5.53;;
46755;SDS011;32506;52.826;-1.192;2023-03-11T01:01:59;11.43;;;4.43;;
46755;SDS011;32506;52.826;-1.192;2023-03-11T01:04:25;10.07;;;5.32;;
46755;SDS011;32506;52.826;-1.192;2023-03-11T01:06:51;11.43;;;5.80;;
46755;SDS011;32506;52.826;-1.192;2023-03-11T01:09:16;12.48;;;5.68;;
46755;SDS011;32506;52.826;-1.192;2023-03-11T01:11:42;9.60;;;4.82;;
46755;SDS011;32506;52.826;-1.192;2023-03-11T01:14:13;9.38;;;5.53;;
46755;SDS011;32506;52.826;-1.192;2023-03-11T01:16:39;11.70;;;5.50;;
46755;SDS011;32506;52.826;-1.192;2023-03-11T01:19:04;9.57;;;4.70;;
46755;SDS011;32506;52.826;-1.192;2023-03-11T01:21:30;11.13;;;5.35;;
46755;SDS011;32506;52.826;-1.192;2023-03-11T01:23:55;7.72;;;4.82;;
46755;SDS011;32506;52.826;-1.192;2023-03-11T01:26:21;10.23;;;5.25;;
46755;SDS011;32506;52.826;-1.192;2023-03-11T01:28:46;12.70;;;4.53;;
46755;SDS011;32506;52.826;-1.192;2023-03-11T01:31:12;12.23;;;5.03;;
46755;SDS011;32506;52.826;-1.192;2023-03-11T01:33:37;9.55;;;4.43;;
46755;SDS011;32506;52.826;-1.192;2023-03-11T01:36:03;9.95;;;5.53;;
46755;SDS011;32506;52.826;-1.192;2023-03-11T01:38:29;8.85;;;5.00;;
46755;SDS011;32506;52.826;-1.192;2023-03-11T01:40:54;9.52;;;4.75;;
46755;SDS011;32506;52.826;-1.192;2023-03-11T01:43:40;11.00;;;5.05;;
46755;SDS011;32506;52.826;-1.192;2023-03-11T01:48:51;8.60;;;4.80;;
46755;SDS011;32506;52.826;-1.192;2023-03-11T01:51:31;10.75;;;5.80;;
46755;SDS011;32506;52.826;-1.192;2023-03-11T01:54:01;10.88;;;5.10;;
46755;SDS011;32506;52.826;-1.192;2023-03-11T01:56:29;9.18;;;4.60;;
46755;SDS011;32506;52.826;-1.192;2023-03-11T01:58:55;7.47;;;4.10;;
46755;SDS011;32506;52.826;-1.192;2023-03-11T02:01:22;8.13;;;4.18;;
46755;SDS011;32506;52.826;-1.192;2023-03-11T02:03:48;10.30;;;4.15;;
46755;SDS011;32506;52.826;-1.192;2023-03-11T02:06:16;8.82;;;4.30;;
46755;SDS011;32506;52.826;-1.192;2023-03-11T02:08:43;10.25;;;5.00;;
46755;SDS011;32506;52.826;-1.192;2023-03-11T02:11:11;9.30;;;4.28;;
46755;SDS011;32506;52.826;-1.192;2023-03-11T02:13:49;7.93;;;3.92;;
46755;SDS011;32506;52.826;-1.192;2023-03-11T02:16:16;9.93;;;4.80;;
46755;SDS011;32506;52.826;-1.192;2023-03-11T02:18:42;9.68;;;4.82;;
46755;SDS011;32506;52.826;-1.192;2023-03-11T02:21:16;8.75;;;4.20;;
46755;SDS011;32506;52.826;-1.192;2023-03-11T02:26:21;9.20;;;4.80;;
46755;SDS011;32506;52.826;-1.192;2023-03-11T02:29:11;8.07;;;4.53;;
46755;SDS011;32506;52.826;-1.192;2023-03-11T02:31:37;8.38;;;4.13;;
46755;SDS011;32506;52.826;-1.192;2023-03-11T02:34:05;9.05;;;4.57;;
46755;SDS011;32506;52.826;-1.192;2023-03-11T02:36:39;7.10;;;3.97;;
46755;SDS011;32506;52.826;-1.192;2023-03-11T02:39:06;10.15;;;4.32;;
46755;SDS011;32506;52.826;-1.192;2023-03-11T02:41:33;8.43;;;4.60;;
46755;SDS011;32506;52.826;-1.192;2023-03-11T02:44:01;7.60;;;4.18;;
46755;SDS011;32506;52.826;-1.192;2023-03-11T02:46:29;9.85;;;4.50;;
46755;SDS011;32506;52.826;-1.192;2023-03-11T02:48:55;9.55;;;4.38;;
46755;SDS011;32506;52.826;-1.192;2023-03-11T02:51:21;8.18;;;4.10;;
46755;SDS011;32506;52.826;-1.192;2023-03-11T02:53:48;9.07;;;4.10;;
46755;SDS011;32506;52.826;-1.192;2023-03-11T02:56:16;9.05;;;3.88;;
46755;SDS011;32506;52.826;-1.192;2023-03-11T02:58:42;7.40;;;4.40;;
46755;SDS011;32506;52.826;-1.192;2023-03-11T03:01:08;9.93;;;5.90;;
46755;SDS011;32506;52.826;-1.192;2023-03-11T03:03:33;9.45;;;4.30;;
46755;SDS011;32506;52.826;-1.192;2023-03-11T03:05:59;7.97;;;4.03;;
46755;SDS011;32506;52.826;-1.192;2023-03-11T03:08:24;7.40;;;3.60;;
46755;SDS011;32506;52.826;-1.192;2023-03-11T03:10:50;7.28;;;3.58;;
46755;SDS011;32506;52.826;-1.192;2023-03-11T03:13:15;9.10;;;4.15;;
46755;SDS011;32506;52.826;-1.192;2023-03-11T03:15:41;7.32;;;3.35;;
46755;SDS011;32506;52.826;-1.192;2023-03-11T03:18:07;8.00;;;3.80;;
46755;SDS011;32506;52.826;-1.192;2023-03-11T03:20:32;10.27;;;4.45;;
46755;SDS011;32506;52.826;-1.192;2023-03-11T03:22:57;7.78;;;3.67;;
46755;SDS011;32506;52.826;-1.192;2023-03-11T03:25:23;8.05;;;4.03;;
46755;SDS011;32506;52.826;-1.192;2023-03-11T03:27:48;9.93;;;3.72;;
46755;SDS011;32506;52.826;-1.192;2023-03-11T03:30:14;5.82;;;3.40;;
46755;SDS011;32506;52.826;-1.192;2023-03-11T03:32:40;7.05;;;3.88;;
46755;SDS011;32506;52.826;-1.192;2023-03-11T03:35:06;8.40;;;4.13;;
46755;SDS011;32506;52.826;-1.192;2023-03-11T03:37:33;8.82;;;3.88;;
46755;SDS011;32506;52.826;-1.192;2023-03-11T03:40:00;9.50;;;4.15;;
46755;SDS011;32506;52.826;-1.192;2023-03-11T03:42:26;7.63;;;4.32;;
46755;SDS011;32506;52.826;-1.192;2023-03-11T03:44:52;6.82;;;3.80;;
46755;SDS011;32506;52.826;-1.192;2023-03-11T03:47:18;7.38;;;4.05;;
46755;SDS011;32506;52.826;-1.192;2023-03-11T03:49:44;8.55;;;4.15;;
46755;SDS011;32506;52.826;-1.192;2023-03-11T03:52:09;6.78;;;3.65;;
46755;SDS011;32506;52.826;-1.192;2023-03-11T03:54:35;8.43;;;3.85;;
46755;SDS011;32506;52.826;-1.192;2023-03-11T03:57:01;6.50;;;3.72;;
46755;SDS011;32506;52.826;-1.192;2023-03-11T03:59:28;8.50;;;4.22;;
46755;SDS011;32506;52.826;-1.192;2023-03-11T04:01:53;9.57;;;4.20;;
46755;SDS011;32506;52.826;-1.192;2023-03-11T04:04:19;6.55;;;4.03;;
46755;SDS011;32506;52.826;-1.192;2023-03-11T04:06:44;8.77;;;3.85;;
46755;SDS011;32506;52.826;-1.192;2023-03-11T04:09:10;7.75;;;3.28;;
46755;SDS011;32506;52.826;-1.192;2023-03-11T04:11:36;8.77;;;4.22;;
46755;SDS011;32506;52.826;-1.192;2023-03-11T04:14:03;8.55;;;4.28;;
46755;SDS011;32506;52.826;-1.192;2023-03-11T04:16:29;10.63;;;4.80;;
46755;SDS011;32506;52.826;-1.192;2023-03-11T04:18:55;8.55;;;4.40;;
46755;SDS011;32506;52.826;-1.192;2023-03-11T04:21:21;8.65;;;4.55;;
46755;SDS011;32506;52.826;-1.192;2023-03-11T04:23:46;9.00;;;4.00;;
46755;SDS011;32506;52.826;-1.192;2023-03-11T04:26:12;10.25;;;4.43;;
46755;SDS011;32506;52.826;-1.192;2023-03-11T04:28:37;10.38;;;4.38;;
46755;SDS011;32506;52.826;-1.192;2023-03-11T04:31:03;9.77;;;4.55;;
46755;SDS011;32506;52.826;-1.192;2023-03-11T04:33:29;8.63;;;4.53;;
46755;SDS011;32506;52.826;-1.192;2023-03-11T04:35:54;8.82;;;4.63;;
46755;SDS011;32506;52.826;-1.192;2023-03-11T04:38:19;9.13;;;4.18;;
46755;SDS011;32506;52.826;-1.192;2023-03-11T04:40:45;9.45;;;4.03;;
46755;SDS011;32506;52.826;-1.192;2023-03-11T04:43:10;6.47;;;3.55;;
46755;SDS011;32506;52.826;-1.192;2023-03-11T04:45:39;7.65;;;3.88;;
46755;SDS011;32506;52.826;-1.192;2023-03-11T04:48:06;8.20;;;3.80;;
46755;SDS011;32506;52.826;-1.192;2023-03-11T04:50:32;8.05;;;3.63;;
46755;SDS011;32506;52.826;-1.192;2023-03-11T04:52:57;5.35;;;3.60;;
46755;SDS011;32506;52.826;-1.192;2023-03-11T04:55:23;7.75;;;4.22;;
46755;SDS011;32506;52.826;-1.192;2023-03-11T04:57:48;8.35;;;4.10;;
46755;SDS011;32506;52.826;-1.192;2023-03-11T05:00:14;9.63;;;4.05;;
46755;SDS011;32506;52.826;-1.192;2023-03-11T05:02:40;7.53;;;4.22;;
46755;SDS011;32506;52.826;-1.192;2023-03-11T05:05:06;8.88;;;4.38;;
46755;SDS011;32506;52.826;-1.192;2023-03-11T05:07:34;7.50;;;3.95;;
46755;SDS011;32506;52.826;-1.192;2023-03-11T05:10:00;7.35;;;4.30;;
46755;SDS011;32506;52.826;-1.192;2023-03-11T05:12:25;7.97;;;4.03;;
46755;SDS011;32506;52.826;-1.192;2023-03-11T05:14:51;7.57;;;3.65;;
46755;SDS011;32506;52.826;-1.192;2023-03-11T05:17:16;5.90;;;3.55;;
46755;SDS011;32506;52.826;-1.192;2023-03-11T05:19:43;6.28;;;3.38;;
46755;SDS011;32506;52.826;-1.192;2023-03-11T05:22:09;7.82;;;4.72;;
46755;SDS011;32506;52.826;-1.192;2023-03-11T05:24:34;9.30;;;4.30;;
46755;SDS011;32506;52.826;-1.192;2023-03-11T05:27:00;6.85;;;4.00;;
46755;SDS011;32506;52.826;-1.192;2023-03-11T05:29:26;7.43;;;4.25;;
46755;SDS011;32506;52.826;-1.192;2023-03-11T05:31:52;7.97;;;4.47;;
46755;SDS011;32506;52.826;-1.192;2023-03-11T05:34:17;10.85;;;4.20;;
46755;SDS011;32506;52.826;-1.192;2023-03-11T05:36:43;9.45;;;4.28;;
46755;SDS011;32506;52.826;-1.192;2023-03-11T05:39:08;8.60;;;4.85;;
46755;SDS011;32506;52.826;-1.192;2023-03-11T05:41:34;9.27;;;4.47;;
46755;SDS011;32506;52.826;-1.192;2023-03-11T05:44:00;8.77;;;5.05;;
46755;SDS011;32506;52.826;-1.192;2023-03-11T05:46:25;9.05;;;4.03;;
46755;SDS011;32506;52.826;-1.192;2023-03-11T05:48:51;8.85;;;4.10;;
46755;SDS011;32506;52.826;-1.192;2023-03-11T05:51:17;10.43;;;4.60;;
46755;SDS011;32506;52.826;-1.192;2023-03-11T05:53:43;8.65;;;4.20;;
46755;SDS011;32506;52.826;-1.192;2023-03-11T05:56:12;9.77;;;4.43;;
46755;SDS011;32506;52.826;-1.192;2023-03-11T05:58:39;9.13;;;3.88;;
46755;SDS011;32506;52.826;-1.192;2023-03-11T06:01:11;8.23;;;4.13;;
46755;SDS011;32506;52.826;-1.192;2023-03-11T06:03:39;7.90;;;4.25;;
46755;SDS011;32506;52.826;-1.192;2023-03-11T06:06:06;6.97;;;3.83;;
46755;SDS011;32506;52.826;-1.192;2023-03-11T06:08:34;8.95;;;4.53;;
46755;SDS011;32506;52.826;-1.192;2023-03-11T06:11:04;8.35;;;4.18;;
46755;SDS011;32506;52.826;-1.192;2023-03-11T06:13:32;9.05;;;4.85;;
46755;SDS011;32506;52.826;-1.192;2023-03-11T06:15:57;7.18;;;3.83;;
46755;SDS011;32506;52.826;-1.192;2023-03-11T06:18:23;7.53;;;4.10;;
46755;SDS011;32506;52.826;-1.192;2023-03-11T06:20:50;8.00;;;4.07;;
46755;SDS011;32506;52.826;-1.192;2023-03-11T06:23:17;9.90;;;5.07;;
46755;SDS011;32506;52.826;-1.192;2023-03-11T06:25:42;8.40;;;3.95;;
46755;SDS011;32506;52.826;-1.192;2023-03-11T06:28:08;8.57;;;3.95;;
46755;SDS011;32506;52.826;-1.192;2023-03-11T06:30:33;7.50;;;3.90;;
46755;SDS011;32506;52.826;-1.192;2023-03-11T06:32:59;6.95;;;4.47;;
46755;SDS011;32506;52.826;-1.192;2023-03-11T06:35:24;8.20;;;4.30;;
46755;SDS011;32506;52.826;-1.192;2023-03-11T06:37:50;9.45;;;4.88;;
46755;SDS011;32506;52.826;-1.192;2023-03-11T06:40:15;8.57;;;4.80;;
46755;SDS011;32506;52.826;-1.192;2023-03-11T06:42:42;7.72;;;4.15;;
46755;SDS011;32506;52.826;-1.192;2023-03-11T06:45:10;8.45;;;4.43;;
46755;SDS011;32506;52.826;-1.192;2023-03-11T06:47:35;10.40;;;4.97;;
46755;SDS011;32506;52.826;-1.192;2023-03-11T06:50:01;8.75;;;4.43;;
46755;SDS011;32506;52.826;-1.192;2023-03-11T06:52:31;8.90;;;4.05;;
46755;SDS011;32506;52.826;-1.192;2023-03-11T06:54:57;12.18;;;4.63;;
46755;SDS011;32506;52.826;-1.192;2023-03-11T06:57:22;7.22;;;3.85;;
46755;SDS011;32506;52.826;-1.192;2023-03-11T06:59:48;8.82;;;4.63;;
46755;SDS011;32506;52.826;-1.192;2023-03-11T07:02:15;9.85;;;5.03;;
46755;SDS011;32506;52.826;-1.192;2023-03-11T07:04:40;8.63;;;4.40;;
46755;SDS011;32506;52.826;-1.192;2023-03-11T07:07:06;9.60;;;4.60;;
46755;SDS011;32506;52.826;-1.192;2023-03-11T07:09:31;9.10;;;4.63;;
46755;SDS011;32506;52.826;-1.192;2023-03-11T07:11:57;8.68;;;4.30;;
46755;SDS011;32506;52.826;-1.192;2023-03-11T07:14:22;9.63;;;4.75;;
46755;SDS011;32506;52.826;-1.192;2023-03-11T07:16:48;9.25;;;5.20;;
46755;SDS011;32506;52.826;-1.192;2023-03-11T07:19:13;8.27;;;4.40;;
46755;SDS011;32506;52.826;-1.192;2023-03-11T07:21:39;9.57;;;5.18;;
46755;SDS011;32506;52.826;-1.192;2023-03-11T07:24:05;9.52;;;4.43;;
46755;SDS011;32506;52.826;-1.192;2023-03-11T07:26:32;8.85;;;4.60;;
46755;SDS011;32506;52.826;-1.192;2023-03-11T07:28:59;8.52;;;4.95;;
46755;SDS011;32506;52.826;-1.192;2023-03-11T07:31:28;10.77;;;5.03;;
46755;SDS011;32506;52.826;-1.192;2023-03-11T07:33:57;7.68;;;4.18;;
46755;SDS011;32506;52.826;-1.192;2023-03-11T07:36:24;7.78;;;3.70;;
46755;SDS011;32506;52.826;-1.192;2023-03-11T07:38:58;7.32;;;3.60;;
46755;SDS011;32506;52.826;-1.192;2023-03-11T07:41:27;7.25;;;3.78;;
46755;SDS011;32506;52.826;-1.192;2023-03-11T07:43:54;6.45;;;3.95;;
46755;SDS011;32506;52.826;-1.192;2023-03-11T07:46:21;8.57;;;4.10;;
46755;SDS011;32506;52.826;-1.192;2023-03-11T07:48:48;9.18;;;4.35;;
46755;SDS011;32506;52.826;-1.192;2023-03-11T07:51:15;6.57;;;3.65;;
46755;SDS011;32506;52.826;-1.192;2023-03-11T07:53:46;10.25;;;4.57;;
46755;SDS011;32506;52.826;-1.192;2023-03-11T07:56:13;5.22;;;3.50;;
46755;SDS011;32506;52.826;-1.192;2023-03-11T07:58:40;8.90;;;4.03;;
46755;SDS011;32506;52.826;-1.192;2023-03-11T08:01:13;7.45;;;4.55;;
46755;SDS011;32506;52.826;-1.192;2023-03-11T08:03:43;6.22;;;3.60;;
46755;SDS011;32506;52.826;-1.192;2023-03-11T08:06:13;7.75;;;4.38;;
46755;SDS011;32506;52.826;-1.192;2023-03-11T08:08:40;7.95;;;4.57;;
46755;SDS011;32506;52.826;-1.192;2023-03-11T08:11:05;8.40;;;3.60;;
46755;SDS011;32506;52.826;-1.192;2023-03-11T08:13:31;10.35;;;4.10;;
46755;SDS011;32506;52.826;-1.192;2023-03-11T08:15:57;5.90;;;3.05;;
46755;SDS011;32506;52.826;-1.192;2023-03-11T08:18:22;7.18;;;3.35;;
46755;SDS011;32506;52.826;-1.192;2023-03-11T08:20:48;7.68;;;4.03;;
46755;SDS011;32506;52.826;-1.192;2023-03-11T08:23:14;7.40;;;4.28;;
46755;SDS011;32506;52.826;-1.192;2023-03-11T08:25:39;7.97;;;3.92;;
46755;SDS011;32506;52.826;-1.192;2023-03-11T08:28:06;6.85;;;3.85;;
46755;SDS011;32506;52.826;-1.192;2023-03-11T08:30:33;9.63;;;3.90;;
46755;SDS011;32506;52.826;-1.192;2023-03-11T08:32:59;7.50;;;3.90;;
46755;SDS011;32506;52.826;-1.192;2023-03-11T08:35:24;9.32;;;4.40;;
46755;SDS011;32506;52.826;-1.192;2023-03-11T08:37:50;6.82;;;4.03;;
46755;SDS011;32506;52.826;-1.192;2023-03-11T08:40:16;7.57;;;3.50;;
46755;SDS011;32506;52.826;-1.192;2023-03-11T08:42:42;7.47;;;4.38;;
46755;SDS011;32506;52.826;-1.192;2023-03-11T08:45:07;6.35;;;3.78;;
46755;SDS011;32506;52.826;-1.192;2023-03-11T08:47:34;7.85;;;4.28;;
46755;SDS011;32506;52.826;-1.192;2023-03-11T08:50:00;8.05;;;4.55;;
46755;SDS011;32506;52.826;-1.192;2023-03-11T08:52:26;6.93;;;3.92;;
46755;SDS011;32506;52.826;-1.192;2023-03-11T08:54:51;7.72;;;4.20;;
46755;SDS011;32506;52.826;-1.192;2023-03-11T08:57:17;6.65;;;3.80;;
46755;SDS011;32506;52.826;-1.192;2023-03-11T08:59:42;8.43;;;4.43;;
46755;SDS011;32506;52.826;-1.192;2023-03-11T09:02:08;9.35;;;4.55;;
46755;SDS011;32506;52.826;-1.192;2023-03-11T09:04:35;7.35;;;4.30;;
46755;SDS011;32506;52.826;-1.192;2023-03-11T09:07:01;7.95;;;3.85;;
46755;SDS011;32506;52.826;-1.192;2023-03-11T09:09:26;6.75;;;3.55;;
46755;SDS011;32506;52.826;-1.192;2023-03-11T09:11:52;8.35;;;3.83;;
46755;SDS011;32506;52.826;-1.192;2023-03-11T09:14:17;8.00;;;3.53;;
46755;SDS011;32506;52.826;-1.192;2023-03-11T09:16:43;5.95;;;3.45;;
46755;SDS011;32506;52.826;-1.192;2023-03-11T09:19:08;11.02;;;3.22;;
46755;SDS011;32506;52.826;-1.192;2023-03-11T09:21:34;7.43;;;3.40;;
46755;SDS011;32506;52.826;-1.192;2023-03-11T09:24:01;11.52;;;4.22;;
46755;SDS011;32506;52.826;-1.192;2023-03-11T09:26:28;6.28;;;3.38;;
46755;SDS011;32506;52.826;-1.192;2023-03-11T09:28:55;5.78;;;3.20;;
46755;SDS011;32506;52.826;-1.192;2023-03-11T09:31:20;6.18;;;3.03;;
46755;SDS011;32506;52.826;-1.192;2023-03-11T09:33:46;7.30;;;2.85;;
46755;SDS011;32506;52.826;-1.192;2023-03-11T09:36:19;4.97;;;3.05;;
46755;SDS011;32506;52.826;-1.192;2023-03-11T09:38:46;6.22;;;2.83;;
46755;SDS011;32506;52.826;-1.192;2023-03-11T09:41:17;6.65;;;3.10;;
46755;SDS011;32506;52.826;-1.192;2023-03-11T09:44:11;7.70;;;2.75;;
46755;SDS011;32506;52.826;-1.192;2023-03-11T09:52:11;8.75;;;2.90;;
46755;SDS011;32506;52.826;-1.192;2023-03-11T09:54:44;5.40;;;2.17;;
46755;SDS011;32506;52.826;-1.192;2023-03-11T09:57:20;6.65;;;2.88;;
46755;SDS011;32506;52.826;-1.192;2023-03-11T09:59:49;7.18;;;2.83;;
46755;SDS011;32506;52.826;-1.192;2023-03-11T10:02:19;6.35;;;2.63;;
46755;SDS011;32506;52.826;-1.192;2023-03-11T10:07:40;8.20;;;2.47;;
46755;SDS011;32506;52.826;-1.192;2023-03-11T10:10:14;5.93;;;2.58;;
46755;SDS011;32506;52.826;-1.192;2023-03-11T10:12:50;4.97;;;2.83;;
46755;SDS011;32506;52.826;-1.192;2023-03-11T10:15:54;7.90;;;2.63;;
46755;SDS011;32506;52.826;-1.192;2023-03-11T10:21:34;4.15;;;2.50;;
46755;SDS011;32506;52.826;-1.192;2023-03-11T10:26:53;5.50;;;2.50;;
46755;SDS011;32506;52.826;-1.192;2023-03-11T10:29:25;7.03;;;2.72;;
46755;SDS011;32506;52.826;-1.192;2023-03-11T10:31:55;5.63;;;2.35;;
46755;SDS011;32506;52.826;-1.192;2023-03-11T10:40:18;4.43;;;2.10;;
46755;SDS011;32506;52.826;-1.192;2023-03-11T10:42:50;6.10;;;2.30;;
46755;SDS011;32506;52.826;-1.192;2023-03-11T10:45:18;8.93;;;3.42;;
46755;SDS011;32506;52.826;-1.192;2023-03-11T10:47:47;4.15;;;1.90;;
46755;SDS011;32506;52.826;-1.192;2023-03-11T10:50:16;4.30;;;2.05;;
46755;SDS011;32506;52.826;-1.192;2023-03-11T10:53:05;2.97;;;1.65;;
46755;SDS011;32506;52.826;-1.192;2023-03-11T10:55:34;5.75;;;1.83;;
46755;SDS011;32506;52.826;-1.192;2023-03-11T10:58:12;3.53;;;1.58;;
46755;SDS011;32506;52.826;-1.192;2023-03-11T11:03:28;3.88;;;1.52;;
46755;SDS011;32506;52.826;-1.192;2023-03-11T11:05:58;2.90;;;1.42;;
46755;SDS011;32506;52.826;-1.192;2023-03-11T11:08:25;4.55;;;1.75;;
46755;SDS011;32506;52.826;-1.192;2023-03-11T11:10:52;5.40;;;1.45;;
46755;SDS011;32506;52.826;-1.192;2023-03-11T11:13:23;3.40;;;1.10;;
46755;SDS011;32506;52.826;-1.192;2023-03-11T11:18:31;4.07;;;1.38;;
46755;SDS011;32506;52.826;-1.192;2023-03-11T11:21:07;3.70;;;1.02;;
46755;SDS011;32506;52.826;-1.192;2023-03-11T11:26:04;4.35;;;0.95;;
46755;SDS011;32506;52.826;-1.192;2023-03-11T11:28:39;5.88;;;1.00;;
46755;SDS011;32506;52.826;-1.192;2023-03-11T11:31:05;2.58;;;0.80;;
46755;SDS011;32506;52.826;-1.192;2023-03-11T11:33:50;5.78;;;1.30;;
46755;SDS011;32506;52.826;-1.192;2023-03-11T11:36:18;4.07;;;0.77;;
46755;SDS011;32506;52.826;-1.192;2023-03-11T11:38:48;3.65;;;0.95;;
46755;SDS011;32506;52.826;-1.192;2023-03-11T11:41:19;3.28;;;0.70;;
46755;SDS011;32506;52.826;-1.192;2023-03-11T11:43:53;4.32;;;0.82;;
46755;SDS011;32506;52.826;-1.192;2023-03-11T11:46:40;2.85;;;0.68;;
46755;SDS011;32506;52.826;-1.192;2023-03-11T11:49:20;2.58;;;1.17;;
46755;SDS011;32506;52.826;-1.192;2023-03-11T11:54:34;4.95;;;1.00;;
46755;SDS011;32506;52.826;-1.192;2023-03-11T11:57:25;4.95;;;1.77;;
46755;SDS011;32506;52.826;-1.192;2023-03-11T11:59:50;2.42;;;0.65;;
46755;SDS011;32506;52.826;-1.192;2023-03-11T12:10:20;4.60;;;1.10;;
46755;SDS011;32506;52.826;-1.192;2023-03-11T12:18:38;2.85;;;0.98;;
46755;SDS011;32506;52.826;-1.192;2023-03-11T12:24:25;3.55;;;0.90;;
46755;SDS011;32506;52.826;-1.192;2023-03-11T12:30:11;2.40;;;0.95;;
46755;SDS011;32506;52.826;-1.192;2023-03-11T12:35:27;2.95;;;1.95;;
46755;SDS011;32506;52.826;-1.192;2023-03-11T12:45:58;3.35;;;1.23;;
46755;SDS011;32506;52.826;-1.192;2023-03-11T12:50:53;3.40;;;1.00;;
46755;SDS011;32506;52.826;-1.192;2023-03-11T12:58:59;3.92;;;0.90;;
46755;SDS011;32506;52.826;-1.192;2023-03-11T13:01:55;3.72;;;0.90;;
46755;SDS011;32506;52.826;-1.192;2023-03-11T13:17:54;2.03;;;0.70;;
46755;SDS011;32506;52.826;-1.192;2023-03-11T13:23:17;1.67;;;0.90;;
46755;SDS011;32506;52.826;-1.192;2023-03-11T13:33:51;3.47;;;0.88;;
46755;SDS011;32506;52.826;-1.192;2023-03-11T13:41:44;2.20;;;0.80;;
46755;SDS011;32506;52.826;-1.192;2023-03-11T13:46:43;4.55;;;1.00;;
46755;SDS011;32506;52.826;-1.192;2023-03-11T13:52:01;3.55;;;0.80;;
46755;SDS011;32506;52.826;-1.192;2023-03-11T13:57:29;1.80;;;0.70;;
46755;SDS011;32506;52.826;-1.192;2023-03-11T13:59:57;3.07;;;0.63;;
46755;SDS011;32506;52.826;-1.192;2023-03-11T14:02:29;4.10;;;1.42;;
46755;SDS011;32506;52.826;-1.192;2023-03-11T14:04:56;1.55;;;0.52;;
46755;SDS011;32506;52.826;-1.192;2023-03-11T14:07:28;4.35;;;0.93;;
46755;SDS011;32506;52.826;-1.192;2023-03-11T14:12:35;2.42;;;0.90;;
46755;SDS011;32506;52.826;-1.192;2023-03-11T14:15:03;2.85;;;0.75;;
46755;SDS011;32506;52.826;-1.192;2023-03-11T14:17:31;4.57;;;1.35;;
46755;SDS011;32506;52.826;-1.192;2023-03-11T14:20:06;2.83;;;0.65;;
46755;SDS011;32506;52.826;-1.192;2023-03-11T14:22:36;1.85;;;1.00;;
46755;SDS011;32506;52.826;-1.192;2023-03-11T14:25:06;1.83;;;0.60;;
46755;SDS011;32506;52.826;-1.192;2023-03-11T14:27:34;3.28;;;1.00;;
46755;SDS011;32506;52.826;-1.192;2023-03-11T14:30:03;3.70;;;0.65;;
46755;SDS011;32506;52.826;-1.192;2023-03-11T14:32:31;3.92;;;1.10;;
46755;SDS011;32506;52.826;-1.192;2023-03-11T14:34:59;3.10;;;0.70;;
46755;SDS011;32506;52.826;-1.192;2023-03-11T14:37:35;4.65;;;1.00;;
46755;SDS011;32506;52.826;-1.192;2023-03-11T14:40:03;4.10;;;0.90;;
46755;SDS011;32506;52.826;-1.192;2023-03-11T14:42:45;3.30;;;0.80;;
46755;SDS011;32506;52.826;-1.192;2023-03-11T14:45:16;2.17;;;0.65;;
46755;SDS011;32506;52.826;-1.192;2023-03-11T14:47:46;3.17;;;0.80;;
46755;SDS011;32506;52.826;-1.192;2023-03-11T14:50:14;5.20;;;1.25;;
46755;SDS011;32506;52.826;-1.192;2023-03-11T14:52:43;2.03;;;0.60;;
46755;SDS011;32506;52.826;-1.192;2023-03-11T14:55:19;4.13;;;0.90;;
46755;SDS011;32506;52.826;-1.192;2023-03-11T14:57:55;3.03;;;0.60;;
46755;SDS011;32506;52.826;-1.192;2023-03-11T15:00:23;4.38;;;0.88;;
46755;SDS011;32506;52.826;-1.192;2023-03-11T15:05:40;3.28;;;1.00;;
46755;SDS011;32506;52.826;-1.192;2023-03-11T15:08:14;5.75;;;1.10;;
46755;SDS011;32506;52.826;-1.192;2023-03-11T15:13:43;3.67;;;1.00;;
46755;SDS011;32506;52.826;-1.192;2023-03-11T15:16:31;1.88;;;0.77;;
46755;SDS011;32506;52.826;-1.192;2023-03-11T15:21:47;4.03;;;0.90;;
46755;SDS011;32506;52.826;-1.192;2023-03-11T15:24:21;2.88;;;0.90;;
46755;SDS011;32506;52.826;-1.192;2023-03-11T15:27:15;3.95;;;1.35;;
46755;SDS011;32506;52.826;-1.192;2023-03-11T15:29:53;2.78;;;1.00;;
46755;SDS011;32506;52.826;-1.192;2023-03-11T15:35:00;4.50;;;1.95;;
46755;SDS011;32506;52.826;-1.192;2023-03-11T15:37:28;4.03;;;1.30;;
46755;SDS011;32506;52.826;-1.192;2023-03-11T15:39:55;5.00;;;1.80;;
46755;SDS011;32506;52.826;-1.192;2023-03-11T15:42:22;5.57;;;1.90;;
46755;SDS011;32506;52.826;-1.192;2023-03-11T15:44:57;3.35;;;1.58;;
46755;SDS011;32506;52.826;-1.192;2023-03-11T15:47:26;4.68;;;1.80;;
46755;SDS011;32506;52.826;-1.192;2023-03-11T15:49:54;5.70;;;1.75;;
46755;SDS011;32506;52.826;-1.192;2023-03-11T15:52:20;6.00;;;1.58;;
46755;SDS011;32506;52.826;-1.192;2023-03-11T15:54:45;6.10;;;1.75;;
46755;SDS011;32506;52.826;-1.192;2023-03-11T15:57:24;5.55;;;1.42;;
46755;SDS011;32506;52.826;-1.192;2023-03-11T15:59:52;3.75;;;1.40;;
46755;SDS011;32506;52.826;-1.192;2023-03-11T16:02:20;2.80;;;1.33;;
46755;SDS011;32506;52.826;-1.192;2023-03-11T16:04:48;8.25;;;3.17;;
46755;SDS011;32506;52.826;-1.192;2023-03-11T16:07:14;4.75;;;1.42;;
46755;SDS011;32506;52.826;-1.192;2023-03-11T16:09:43;4.68;;;1.38;;
46755;SDS011;32506;52.826;-1.192;2023-03-11T16:12:15;4.53;;;1.73;;
46755;SDS011;32506;52.826;-1.192;2023-03-11T16:14:43;3.70;;;1.40;;
46755;SDS011;32506;52.826;-1.192;2023-03-11T16:17:09;6.13;;;1.55;;
46755;SDS011;32506;52.826;-1.192;2023-03-11T16:19:38;3.45;;;1.30;;
46755;SDS011;32506;52.826;-1.192;2023-03-11T16:22:04;4.65;;;1.25;;
46755;SDS011;32506;52.826;-1.192;2023-03-11T16:24:30;3.28;;;1.23;;
46755;SDS011;32506;52.826;-1.192;2023-03-11T16:26:55;3.35;;;1.40;;
46755;SDS011;32506;52.826;-1.192;2023-03-11T16:29:21;4.32;;;1.88;;
46755;SDS011;32506;52.826;-1.192;2023-03-11T16:31:47;2.97;;;1.55;;
46755;SDS011;32506;52.826;-1.192;2023-03-11T16:34:13;5.00;;;1.48;;
46755;SDS011;32506;52.826;-1.192;2023-03-11T16:36:38;3.78;;;1.17;;
46755;SDS011;32506;52.826;-1.192;2023-03-11T16:39:04;2.30;;;1.08;;
46755;SDS011;32506;52.826;-1.192;2023-03-11T16:41:32;1.98;;;1.20;;
46755;SDS011;32506;52.826;-1.192;2023-03-11T16:44:05;3.00;;;1.30;;
46755;SDS011;32506;52.826;-1.192;2023-03-11T16:46:31;3.35;;;1.02;;